sensor_id;sensor_type;location;lat;lon;timestamp;P1;durP1;ratioP1;P2;durP2;ratioP2
35540;SDS011;21650;48.840;9.162;2023-06-10T00:01:58;7.40;;;6.67;;
35540;SDS011;21650;48.840;9.162;2023-06-10T00:04:24;10.00;;;7.67;;
35540;SDS011;21650;48.840;9.162;2023-06-10T00:06:53;8.27;;;7.20;;
35540;SDS011;21650;48.840;9.162;2023-06-10T00:09:18;9.63;;;7.90;;
35540;SDS011;21650;48.840;9.162;2023-06-10T00:11:46;8.30;;;7.43;;
35540;SDS011;21650;48.840;9.162;2023-06-10T00:14:12;9.13;;;7.37;;
35540;SDS011;21650;48.840;9.162;2023-06-10T00:16:38;7.43;;;6.70;;
35540;SDS011;21650;48.840;9.162;2023-06-10T00:19:04;8.50;;;7.70;;
35540;SDS011;21650;48.840;9.162;2023-06-10T00:21:30;8.63;;;7.47;;
35540;SDS011;21650;48.840;9.162;2023-06-10T00:24:03;8.33;;;7.47;;
35540;SDS011;21650;48.840;9.162;2023-06-10T00:26:30;8.13;;;7.33;;
35540;SDS011;21650;48.840;9.162;2023-06-10T00:28:56;9.47;;;7.07;;
35540;SDS011;21650;48.840;9.162;2023-06-10T00:31:22;8.10;;;7.30;;
35540;SDS011;21650;48.840;9.162;2023-06-10T00:33:48;9.30;;;7.63;;
35540;SDS011;21650;48.840;9.162;2023-06-10T00:36:13;10.07;;;7.20;;
35540;SDS011;21650;48.840;9.162;2023-06-10T00:38:39;8.90;;;8.00;;
35540;SDS011;21650;48.840;9.162;2023-06-10T00:41:06;8.47;;;7.57;;
35540;SDS011;21650;48.840;9.162;2023-06-10T00:43:32;11.77;;;7.67;;
35540;SDS011;21650;48.840;9.162;2023-06-10T00:45:57;9.87;;;7.17;;
35540;SDS011;21650;48.840;9.162;2023-06-10T00:48:24;8.17;;;7.37;;
35540;SDS011;21650;48.840;9.162;2023-06-10T00:50:50;7.97;;;7.17;;
35540;SDS011;21650;48.840;9.162;2023-06-10T00:53:16;9.07;;;7.43;;
35540;SDS011;21650;48.840;9.162;2023-06-10T00:55:42;8.60;;;7.17;;
35540;SDS011;21650;48.840;9.162;2023-06-10T00:58:08;9.23;;;7.27;;
35540;SDS011;21650;48.840;9.162;2023-06-10T01:00:34;9.27;;;8.20;;
35540;SDS011;21650;48.840;9.162;2023-06-10T01:03:00;8.87;;;7.87;;
35540;SDS011;21650;48.840;9.162;2023-06-10T01:05:25;8.33;;;7.43;;
35540;SDS011;21650;48.840;9.162;2023-06-10T01:08:03;9.60;;;7.40;;
35540;SDS011;21650;48.840;9.162;2023-06-10T01:10:41;9.23;;;7.47;;
35540;SDS011;21650;48.840;9.162;2023-06-10T01:13:12;9.17;;;7.77;;
35540;SDS011;21650;48.840;9.162;2023-06-10T01:15:40;9.63;;;6.97;;
35540;SDS011;21650;48.840;9.162;2023-06-10T01:18:09;7.90;;;7.17;;
35540;SDS011;21650;48.840;9.162;2023-06-10T01:20:40;8.37;;;7.03;;
35540;SDS011;21650;48.840;9.162;2023-06-10T01:23:08;10.17;;;7.47;;
35540;SDS011;21650;48.840;9.162;2023-06-10T01:25:38;8.63;;;7.77;;
35540;SDS011;21650;48.840;9.162;2023-06-10T01:28:13;8.00;;;7.20;;
35540;SDS011;21650;48.840;9.162;2023-06-10T01:33:35;10.30;;;7.00;;
35540;SDS011;21650;48.840;9.162;2023-06-10T01:36:03;8.23;;;7.07;;
35540;SDS011;21650;48.840;9.162;2023-06-10T01:38:31;8.00;;;7.10;;
35540;SDS011;21650;48.840;9.162;2023-06-10T01:40:58;7.50;;;6.73;;
35540;SDS011;21650;48.840;9.162;2023-06-10T01:43:25;7.80;;;7.00;;
35540;SDS011;21650;48.840;9.162;2023-06-10T01:45:51;8.40;;;7.53;;
35540;SDS011;21650;48.840;9.162;2023-06-10T01:48:16;7.93;;;7.13;;
35540;SDS011;21650;48.840;9.162;2023-06-10T01:50:42;7.67;;;6.87;;
35540;SDS011;21650;48.840;9.162;2023-06-10T01:53:09;8.73;;;7.23;;
35540;SDS011;21650;48.840;9.162;2023-06-10T01:55:34;7.87;;;7.17;;
35540;SDS011;21650;48.840;9.162;2023-06-10T01:58:00;8.53;;;7.63;;
35540;SDS011;21650;48.840;9.162;2023-06-10T02:00:25;8.93;;;7.13;;
35540;SDS011;21650;48.840;9.162;2023-06-10T02:02:51;8.80;;;7.27;;
35540;SDS011;21650;48.840;9.162;2023-06-10T02:05:17;8.13;;;7.27;;
35540;SDS011;21650;48.840;9.162;2023-06-10T02:07:43;7.77;;;6.97;;
35540;SDS011;21650;48.840;9.162;2023-06-10T02:10:08;8.60;;;7.70;;
35540;SDS011;21650;48.840;9.162;2023-06-10T02:12:34;8.73;;;7.67;;
35540;SDS011;21650;48.840;9.162;2023-06-10T02:15:00;7.70;;;6.90;;
35540;SDS011;21650;48.840;9.162;2023-06-10T02:17:25;8.33;;;7.53;;
35540;SDS011;21650;48.840;9.162;2023-06-10T02:19:51;8.63;;;7.13;;
35540;SDS011;21650;48.840;9.162;2023-06-10T02:22:21;7.47;;;6.73;;
35540;SDS011;21650;48.840;9.162;2023-06-10T02:24:48;7.53;;;6.73;;
35540;SDS011;21650;48.840;9.162;2023-06-10T02:27:14;9.30;;;6.37;;
35540;SDS011;21650;48.840;9.162;2023-06-10T02:29:40;8.37;;;6.50;;
35540;SDS011;21650;48.840;9.162;2023-06-10T02:32:07;6.83;;;6.00;;
35540;SDS011;21650;48.840;9.162;2023-06-10T02:34:33;7.20;;;6.50;;
35540;SDS011;21650;48.840;9.162;2023-06-10T02:36:59;8.47;;;7.60;;
35540;SDS011;21650;48.840;9.162;2023-06-10T02:39:25;7.63;;;6.90;;
35540;SDS011;21650;48.840;9.162;2023-06-10T02:41:52;7.73;;;6.80;;
35540;SDS011;21650;48.840;9.162;2023-06-10T02:44:18;8.23;;;7.27;;
35540;SDS011;21650;48.840;9.162;2023-06-10T02:46:44;8.37;;;7.10;;
35540;SDS011;21650;48.840;9.162;2023-06-10T02:49:11;8.57;;;7.37;;
35540;SDS011;21650;48.840;9.162;2023-06-10T02:51:36;7.60;;;6.53;;
35540;SDS011;21650;48.840;9.162;2023-06-10T02:54:02;8.67;;;7.33;;
35540;SDS011;21650;48.840;9.162;2023-06-10T02:56:28;9.23;;;6.70;;
35540;SDS011;21650;48.840;9.162;2023-06-10T02:58:54;8.17;;;6.33;;
35540;SDS011;21650;48.840;9.162;2023-06-10T03:01:20;8.37;;;6.87;;
35540;SDS011;21650;48.840;9.162;2023-06-10T03:03:46;8.23;;;6.23;;
35540;SDS011;21650;48.840;9.162;2023-06-10T03:06:12;9.13;;;6.43;;
35540;SDS011;21650;48.840;9.162;2023-06-10T03:08:38;9.30;;;6.03;;
35540;SDS011;21650;48.840;9.162;2023-06-10T03:11:05;6.93;;;6.23;;
35540;SDS011;21650;48.840;9.162;2023-06-10T03:13:31;13.30;;;6.80;;
35540;SDS011;21650;48.840;9.162;2023-06-10T03:15:57;8.30;;;6.40;;
35540;SDS011;21650;48.840;9.162;2023-06-10T03:18:26;7.20;;;6.50;;
35540;SDS011;21650;48.840;9.162;2023-06-10T03:20:53;7.43;;;6.20;;
35540;SDS011;21650;48.840;9.162;2023-06-10T03:23:22;8.20;;;6.87;;
35540;SDS011;21650;48.840;9.162;2023-06-10T03:25:48;8.20;;;6.60;;
35540;SDS011;21650;48.840;9.162;2023-06-10T03:28:13;6.50;;;5.87;;
35540;SDS011;21650;48.840;9.162;2023-06-10T03:30:39;6.47;;;5.80;;
35540;SDS011;21650;48.840;9.162;2023-06-10T03:33:05;7.13;;;6.43;;
35540;SDS011;21650;48.840;9.162;2023-06-10T03:35:30;6.23;;;5.63;;
35540;SDS011;21650;48.840;9.162;2023-06-10T03:37:57;8.83;;;6.10;;
35540;SDS011;21650;48.840;9.162;2023-06-10T03:40:23;7.33;;;6.63;;
35540;SDS011;21650;48.840;9.162;2023-06-10T03:42:48;7.87;;;6.67;;
35540;SDS011;21650;48.840;9.162;2023-06-10T03:45:14;10.67;;;7.10;;
35540;SDS011;21650;48.840;9.162;2023-06-10T03:47:40;10.17;;;7.60;;
35540;SDS011;21650;48.840;9.162;2023-06-10T03:50:06;10.03;;;7.07;;
35540;SDS011;21650;48.840;9.162;2023-06-10T03:52:36;8.70;;;7.60;;
35540;SDS011;21650;48.840;9.162;2023-06-10T03:55:03;8.77;;;7.70;;
35540;SDS011;21650;48.840;9.162;2023-06-10T03:57:29;8.50;;;7.70;;
35540;SDS011;21650;48.840;9.162;2023-06-10T03:59:54;12.87;;;7.37;;
35540;SDS011;21650;48.840;9.162;2023-06-10T04:02:21;9.13;;;8.07;;
35540;SDS011;21650;48.840;9.162;2023-06-10T04:04:47;7.97;;;7.17;;
35540;SDS011;21650;48.840;9.162;2023-06-10T04:07:13;8.53;;;7.37;;
35540;SDS011;21650;48.840;9.162;2023-06-10T04:09:39;9.73;;;7.87;;
35540;SDS011;21650;48.840;9.162;2023-06-10T04:12:05;9.30;;;7.50;;
35540;SDS011;21650;48.840;9.162;2023-06-10T04:14:33;12.67;;;8.17;;
35540;SDS011;21650;48.840;9.162;2023-06-10T04:17:00;8.77;;;7.07;;
35540;SDS011;21650;48.840;9.162;2023-06-10T04:19:27;8.27;;;7.20;;
35540;SDS011;21650;48.840;9.162;2023-06-10T04:21:53;10.80;;;7.57;;
35540;SDS011;21650;48.840;9.162;2023-06-10T04:24:19;9.23;;;7.07;;
35540;SDS011;21650;48.840;9.162;2023-06-10T04:26:44;10.17;;;7.73;;
35540;SDS011;21650;48.840;9.162;2023-06-10T04:29:10;8.60;;;7.63;;
35540;SDS011;21650;48.840;9.162;2023-06-10T04:31:35;8.63;;;7.70;;
35540;SDS011;21650;48.840;9.162;2023-06-10T04:34:01;9.60;;;7.23;;
35540;SDS011;21650;48.840;9.162;2023-06-10T04:36:27;7.83;;;6.83;;
35540;SDS011;21650;48.840;9.162;2023-06-10T04:38:54;12.73;;;7.70;;
35540;SDS011;21650;48.840;9.162;2023-06-10T04:41:19;8.80;;;7.37;;
35540;SDS011;21650;48.840;9.162;2023-06-10T04:43:45;13.30;;;7.77;;
35540;SDS011;21650;48.840;9.162;2023-06-10T04:46:11;8.50;;;7.60;;
35540;SDS011;21650;48.840;9.162;2023-06-10T04:48:38;10.40;;;8.37;;
35540;SDS011;21650;48.840;9.162;2023-06-10T04:51:04;8.13;;;7.43;;
35540;SDS011;21650;48.840;9.162;2023-06-10T04:53:30;8.90;;;7.50;;
35540;SDS011;21650;48.840;9.162;2023-06-10T04:55:56;8.77;;;7.87;;
35540;SDS011;21650;48.840;9.162;2023-06-10T04:58:22;9.87;;;8.03;;
35540;SDS011;21650;48.840;9.162;2023-06-10T05:00:48;9.03;;;6.80;;
35540;SDS011;21650;48.840;9.162;2023-06-10T05:03:14;8.77;;;7.70;;
35540;SDS011;21650;48.840;9.162;2023-06-10T05:05:40;9.33;;;7.73;;
35540;SDS011;21650;48.840;9.162;2023-06-10T05:08:05;8.13;;;7.33;;
35540;SDS011;21650;48.840;9.162;2023-06-10T05:10:31;8.50;;;7.40;;
35540;SDS011;21650;48.840;9.162;2023-06-10T05:12:57;8.13;;;7.33;;
35540;SDS011;21650;48.840;9.162;2023-06-10T05:15:23;7.67;;;6.87;;
35540;SDS011;21650;48.840;9.162;2023-06-10T05:17:49;8.17;;;6.93;;
35540;SDS011;21650;48.840;9.162;2023-06-10T05:20:15;9.57;;;6.40;;
35540;SDS011;21650;48.840;9.162;2023-06-10T05:22:41;7.60;;;6.80;;
35540;SDS011;21650;48.840;9.162;2023-06-10T05:25:06;8.60;;;7.43;;
35540;SDS011;21650;48.840;9.162;2023-06-10T05:27:32;7.53;;;6.57;;
35540;SDS011;21650;48.840;9.162;2023-06-10T05:29:58;6.73;;;6.03;;
35540;SDS011;21650;48.840;9.162;2023-06-10T05:32:24;8.47;;;6.57;;
35540;SDS011;21650;48.840;9.162;2023-06-10T05:34:50;7.83;;;5.80;;
35540;SDS011;21650;48.840;9.162;2023-06-10T05:37:15;5.93;;;5.33;;
35540;SDS011;21650;48.840;9.162;2023-06-10T05:39:41;6.33;;;4.97;;
35540;SDS011;21650;48.840;9.162;2023-06-10T05:42:06;7.43;;;5.03;;
35540;SDS011;21650;48.840;9.162;2023-06-10T05:44:33;6.07;;;5.47;;
35540;SDS011;21650;48.840;9.162;2023-06-10T05:46:58;6.27;;;4.93;;
35540;SDS011;21650;48.840;9.162;2023-06-10T05:49:24;4.87;;;4.37;;
35540;SDS011;21650;48.840;9.162;2023-06-10T05:51:50;5.87;;;4.97;;
35540;SDS011;21650;48.840;9.162;2023-06-10T05:54:17;6.37;;;4.80;;
35540;SDS011;21650;48.840;9.162;2023-06-10T05:56:43;5.27;;;4.77;;
35540;SDS011;21650;48.840;9.162;2023-06-10T05:59:09;5.90;;;5.27;;
35540;SDS011;21650;48.840;9.162;2023-06-10T06:01:34;5.47;;;4.80;;
35540;SDS011;21650;48.840;9.162;2023-06-10T06:04:00;5.70;;;5.00;;
35540;SDS011;21650;48.840;9.162;2023-06-10T06:06:25;5.60;;;5.10;;
35540;SDS011;21650;48.840;9.162;2023-06-10T06:08:51;5.13;;;4.50;;
35540;SDS011;21650;48.840;9.162;2023-06-10T06:11:17;7.13;;;6.00;;
35540;SDS011;21650;48.840;9.162;2023-06-10T06:13:42;6.93;;;5.33;;
35540;SDS011;21650;48.840;9.162;2023-06-10T06:16:08;5.93;;;5.20;;
35540;SDS011;21650;48.840;9.162;2023-06-10T06:18:34;5.90;;;5.10;;
35540;SDS011;21650;48.840;9.162;2023-06-10T06:20:59;5.13;;;4.67;;
35540;SDS011;21650;48.840;9.162;2023-06-10T06:23:25;5.30;;;4.80;;
35540;SDS011;21650;48.840;9.162;2023-06-10T06:25:50;5.60;;;5.10;;
35540;SDS011;21650;48.840;9.162;2023-06-10T06:28:16;7.07;;;5.10;;
35540;SDS011;21650;48.840;9.162;2023-06-10T06:30:43;5.70;;;4.63;;
35540;SDS011;21650;48.840;9.162;2023-06-10T06:33:09;6.07;;;4.60;;
35540;SDS011;21650;48.840;9.162;2023-06-10T06:35:35;5.40;;;4.90;;
35540;SDS011;21650;48.840;9.162;2023-06-10T06:38:03;6.00;;;5.13;;
35540;SDS011;21650;48.840;9.162;2023-06-10T06:40:29;6.50;;;5.50;;
35540;SDS011;21650;48.840;9.162;2023-06-10T06:42:54;7.40;;;5.00;;
35540;SDS011;21650;48.840;9.162;2023-06-10T06:45:20;5.30;;;4.77;;
35540;SDS011;21650;48.840;9.162;2023-06-10T06:47:46;5.50;;;4.90;;
35540;SDS011;21650;48.840;9.162;2023-06-10T06:50:11;7.00;;;5.07;;
35540;SDS011;21650;48.840;9.162;2023-06-10T06:52:37;5.17;;;4.67;;
35540;SDS011;21650;48.840;9.162;2023-06-10T06:55:02;5.80;;;5.30;;
35540;SDS011;21650;48.840;9.162;2023-06-10T06:57:28;6.37;;;4.77;;
35540;SDS011;21650;48.840;9.162;2023-06-10T06:59:54;4.83;;;4.43;;
35540;SDS011;21650;48.840;9.162;2023-06-10T07:02:19;7.07;;;5.30;;
35540;SDS011;21650;48.840;9.162;2023-06-10T07:04:45;5.80;;;5.20;;
35540;SDS011;21650;48.840;9.162;2023-06-10T07:07:13;5.60;;;5.00;;
35540;SDS011;21650;48.840;9.162;2023-06-10T07:09:39;6.00;;;4.87;;
35540;SDS011;21650;48.840;9.162;2023-06-10T07:12:05;6.07;;;5.00;;
35540;SDS011;21650;48.840;9.162;2023-06-10T07:14:31;5.33;;;4.67;;
35540;SDS011;21650;48.840;9.162;2023-06-10T07:16:56;6.00;;;5.17;;
35540;SDS011;21650;48.840;9.162;2023-06-10T07:19:22;4.57;;;4.17;;
35540;SDS011;21650;48.840;9.162;2023-06-10T07:21:47;4.57;;;4.10;;
35540;SDS011;21650;48.840;9.162;2023-06-10T07:24:13;5.17;;;4.13;;
35540;SDS011;21650;48.840;9.162;2023-06-10T07:26:39;4.93;;;4.43;;
35540;SDS011;21650;48.840;9.162;2023-06-10T07:29:04;5.87;;;4.67;;
35540;SDS011;21650;48.840;9.162;2023-06-10T07:31:30;6.40;;;5.60;;
35540;SDS011;21650;48.840;9.162;2023-06-10T07:33:56;4.60;;;4.20;;
35540;SDS011;21650;48.840;9.162;2023-06-10T07:36:21;5.00;;;4.50;;
35540;SDS011;21650;48.840;9.162;2023-06-10T07:38:47;5.57;;;4.53;;
35540;SDS011;21650;48.840;9.162;2023-06-10T07:41:13;7.67;;;5.53;;
35540;SDS011;21650;48.840;9.162;2023-06-10T07:43:39;6.10;;;4.80;;
35540;SDS011;21650;48.840;9.162;2023-06-10T07:46:05;4.93;;;4.53;;
35540;SDS011;21650;48.840;9.162;2023-06-10T07:48:30;4.57;;;4.17;;
35540;SDS011;21650;48.840;9.162;2023-06-10T07:50:56;4.67;;;4.20;;
35540;SDS011;21650;48.840;9.162;2023-06-10T07:53:22;7.30;;;5.20;;
35540;SDS011;21650;48.840;9.162;2023-06-10T07:55:47;6.87;;;4.93;;
35540;SDS011;21650;48.840;9.162;2023-06-10T07:58:13;7.17;;;5.47;;
35540;SDS011;21650;48.840;9.162;2023-06-10T08:00:38;5.53;;;4.77;;
35540;SDS011;21650;48.840;9.162;2023-06-10T08:03:04;7.00;;;5.23;;
35540;SDS011;21650;48.840;9.162;2023-06-10T08:05:29;5.47;;;4.97;;
35540;SDS011;21650;48.840;9.162;2023-06-10T08:07:55;7.73;;;5.60;;
35540;SDS011;21650;48.840;9.162;2023-06-10T08:10:21;7.13;;;5.67;;
35540;SDS011;21650;48.840;9.162;2023-06-10T08:12:46;7.23;;;6.20;;
35540;SDS011;21650;48.840;9.162;2023-06-10T08:15:12;7.67;;;5.63;;
35540;SDS011;21650;48.840;9.162;2023-06-10T08:17:37;6.60;;;5.20;;
35540;SDS011;21650;48.840;9.162;2023-06-10T08:20:04;7.90;;;5.50;;
35540;SDS011;21650;48.840;9.162;2023-06-10T08:22:31;7.10;;;5.13;;
35540;SDS011;21650;48.840;9.162;2023-06-10T08:24:56;7.50;;;5.77;;
35540;SDS011;21650;48.840;9.162;2023-06-10T08:27:22;7.10;;;6.07;;
35540;SDS011;21650;48.840;9.162;2023-06-10T08:29:48;7.37;;;5.20;;
35540;SDS011;21650;48.840;9.162;2023-06-10T08:32:13;5.80;;;5.20;;
35540;SDS011;21650;48.840;9.162;2023-06-10T08:34:39;6.23;;;5.13;;
35540;SDS011;21650;48.840;9.162;2023-06-10T08:37:05;5.53;;;5.00;;
35540;SDS011;21650;48.840;9.162;2023-06-10T08:39:31;5.87;;;5.20;;
35540;SDS011;21650;48.840;9.162;2023-06-10T08:44:35;5.70;;;5.17;;
35540;SDS011;21650;48.840;9.162;2023-06-10T08:47:05;5.75;;;4.63;;
35540;SDS011;21650;48.840;9.162;2023-06-10T08:49:38;5.68;;;5.18;;
35540;SDS011;21650;48.840;9.162;2023-06-10T08:52:06;6.57;;;5.07;;
35540;SDS011;21650;48.840;9.162;2023-06-10T08:54:33;5.32;;;4.80;;
35540;SDS011;21650;48.840;9.162;2023-06-10T08:57:02;5.25;;;4.60;;
35540;SDS011;21650;48.840;9.162;2023-06-10T08:59:33;6.47;;;5.32;;
35540;SDS011;21650;48.840;9.162;2023-06-10T09:01:58;6.82;;;5.10;;
35540;SDS011;21650;48.840;9.162;2023-06-10T09:04:26;7.07;;;5.35;;
35540;SDS011;21650;48.840;9.162;2023-06-10T09:06:52;5.68;;;5.15;;
35540;SDS011;21650;48.840;9.162;2023-06-10T09:09:18;5.07;;;4.57;;
35540;SDS011;21650;48.840;9.162;2023-06-10T09:11:45;4.72;;;4.32;;
35540;SDS011;21650;48.840;9.162;2023-06-10T09:14:10;4.65;;;4.13;;
35540;SDS011;21650;48.840;9.162;2023-06-10T09:16:38;5.20;;;4.70;;
35540;SDS011;21650;48.840;9.162;2023-06-10T09:19:03;5.28;;;4.78;;
35540;SDS011;21650;48.840;9.162;2023-06-10T09:21:33;5.00;;;4.53;;
35540;SDS011;21650;48.840;9.162;2023-06-10T09:23:59;5.68;;;4.43;;
35540;SDS011;21650;48.840;9.162;2023-06-10T09:26:28;5.03;;;4.18;;
35540;SDS011;21650;48.840;9.162;2023-06-10T09:29:06;4.80;;;4.30;;
35540;SDS011;21650;48.840;9.162;2023-06-10T09:31:36;4.40;;;4.00;;
35540;SDS011;21650;48.840;9.162;2023-06-10T09:34:10;5.07;;;4.55;;
35540;SDS011;21650;48.840;9.162;2023-06-10T09:36:37;5.82;;;4.72;;
35540;SDS011;21650;48.840;9.162;2023-06-10T09:39:04;4.57;;;4.07;;
35540;SDS011;21650;48.840;9.162;2023-06-10T09:41:39;4.57;;;4.15;;
35540;SDS011;21650;48.840;9.162;2023-06-10T09:44:12;4.47;;;4.13;;
35540;SDS011;21650;48.840;9.162;2023-06-10T09:46:42;4.90;;;4.40;;
35540;SDS011;21650;48.840;9.162;2023-06-10T09:49:11;5.45;;;4.40;;
35540;SDS011;21650;48.840;9.162;2023-06-10T09:51:36;5.65;;;4.90;;
35540;SDS011;21650;48.840;9.162;2023-06-10T09:54:02;5.07;;;4.38;;
35540;SDS011;21650;48.840;9.162;2023-06-10T09:56:32;4.78;;;4.35;;
35540;SDS011;21650;48.840;9.162;2023-06-10T09:59:02;5.35;;;3.90;;
35540;SDS011;21650;48.840;9.162;2023-06-10T10:01:30;5.32;;;4.78;;
35540;SDS011;21650;48.840;9.162;2023-06-10T10:03:55;4.63;;;4.05;;
35540;SDS011;21650;48.840;9.162;2023-06-10T10:06:21;9.80;;;4.40;;
35540;SDS011;21650;48.840;9.162;2023-06-10T10:08:48;4.57;;;4.10;;
35540;SDS011;21650;48.840;9.162;2023-06-10T10:11:16;5.35;;;4.72;;
35540;SDS011;21650;48.840;9.162;2023-06-10T10:13:49;5.10;;;4.30;;
35540;SDS011;21650;48.840;9.162;2023-06-10T10:16:20;4.57;;;4.18;;
35540;SDS011;21650;48.840;9.162;2023-06-10T10:18:59;5.50;;;4.72;;
35540;SDS011;21650;48.840;9.162;2023-06-10T10:21:31;4.80;;;4.20;;
35540;SDS011;21650;48.840;9.162;2023-06-10T10:24:05;6.50;;;4.45;;
35540;SDS011;21650;48.840;9.162;2023-06-10T10:26:36;4.80;;;4.03;;
35540;SDS011;21650;48.840;9.162;2023-06-10T10:31:46;6.45;;;4.70;;
35540;SDS011;21650;48.840;9.162;2023-06-10T10:34:16;5.05;;;4.57;;
35540;SDS011;21650;48.840;9.162;2023-06-10T10:37:04;4.75;;;3.90;;
35540;SDS011;21650;48.840;9.162;2023-06-10T10:39:30;4.47;;;4.07;;
35540;SDS011;21650;48.840;9.162;2023-06-10T10:41:58;4.45;;;4.05;;
35540;SDS011;21650;48.840;9.162;2023-06-10T10:44:24;5.47;;;4.60;;
35540;SDS011;21650;48.840;9.162;2023-06-10T10:46:50;5.03;;;4.63;;
35540;SDS011;21650;48.840;9.162;2023-06-10T10:49:17;5.78;;;4.68;;
35540;SDS011;21650;48.840;9.162;2023-06-10T10:51:56;5.65;;;4.50;;
35540;SDS011;21650;48.840;9.162;2023-06-10T10:54:28;5.70;;;4.80;;
35540;SDS011;21650;48.840;9.162;2023-06-10T10:59:56;4.85;;;4.40;;
35540;SDS011;21650;48.840;9.162;2023-06-10T11:05:09;5.45;;;4.55;;
35540;SDS011;21650;48.840;9.162;2023-06-10T11:07:37;4.95;;;4.45;;
35540;SDS011;21650;48.840;9.162;2023-06-10T11:10:12;4.45;;;4.00;;
35540;SDS011;21650;48.840;9.162;2023-06-10T11:15:27;4.82;;;3.95;;
35540;SDS011;21650;48.840;9.162;2023-06-10T11:18:06;5.32;;;4.55;;
35540;SDS011;21650;48.840;9.162;2023-06-10T11:33:54;4.35;;;3.95;;
35540;SDS011;21650;48.840;9.162;2023-06-10T11:36:21;4.90;;;4.20;;
35540;SDS011;21650;48.840;9.162;2023-06-10T11:38:47;4.30;;;3.90;;
35540;SDS011;21650;48.840;9.162;2023-06-10T11:41:14;4.47;;;4.07;;
35540;SDS011;21650;48.840;9.162;2023-06-10T11:43:42;4.80;;;4.40;;
35540;SDS011;21650;48.840;9.162;2023-06-10T11:46:09;4.28;;;3.88;;
35540;SDS011;21650;48.840;9.162;2023-06-10T11:48:35;4.18;;;3.78;;
35540;SDS011;21650;48.840;9.162;2023-06-10T11:51:01;4.55;;;4.15;;
35540;SDS011;21650;48.840;9.162;2023-06-10T11:53:33;4.00;;;3.70;;
35540;SDS011;21650;48.840;9.162;2023-06-10T11:55:59;6.90;;;3.83;;
35540;SDS011;21650;48.840;9.162;2023-06-10T11:58:25;4.43;;;3.75;;
35540;SDS011;21650;48.840;9.162;2023-06-10T12:00:51;3.95;;;3.55;;
35540;SDS011;21650;48.840;9.162;2023-06-10T12:03:18;4.68;;;3.63;;
35540;SDS011;21650;48.840;9.162;2023-06-10T12:05:57;4.93;;;4.43;;
35540;SDS011;21650;48.840;9.162;2023-06-10T12:08:23;4.78;;;4.25;;
35540;SDS011;21650;48.840;9.162;2023-06-10T12:10:49;4.53;;;3.88;;
35540;SDS011;21650;48.840;9.162;2023-06-10T12:13:15;3.67;;;3.38;;
35540;SDS011;21650;48.840;9.162;2023-06-10T12:15:42;5.28;;;3.55;;
35540;SDS011;21650;48.840;9.162;2023-06-10T12:18:15;5.47;;;4.13;;
35540;SDS011;21650;48.840;9.162;2023-06-10T12:20:44;5.30;;;4.53;;
35540;SDS011;21650;48.840;9.162;2023-06-10T12:23:10;4.50;;;4.10;;
35540;SDS011;21650;48.840;9.162;2023-06-10T12:25:37;4.65;;;3.40;;
35540;SDS011;21650;48.840;9.162;2023-06-10T12:28:03;4.10;;;3.80;;
35540;SDS011;21650;48.840;9.162;2023-06-10T12:30:30;5.05;;;3.78;;
35540;SDS011;21650;48.840;9.162;2023-06-10T12:32:56;3.95;;;3.50;;
35540;SDS011;21650;48.840;9.162;2023-06-10T12:35:23;3.97;;;3.58;;
35540;SDS011;21650;48.840;9.162;2023-06-10T12:37:57;3.80;;;3.50;;
35540;SDS011;21650;48.840;9.162;2023-06-10T12:42:57;3.60;;;3.30;;
35540;SDS011;21650;48.840;9.162;2023-06-10T12:46:07;4.57;;;4.18;;
35540;SDS011;21650;48.840;9.162;2023-06-10T12:48:22;4.50;;;3.63;;
35540;SDS011;21650;48.840;9.162;2023-06-10T12:50:55;4.38;;;3.60;;
35540;SDS011;21650;48.840;9.162;2023-06-10T12:53:22;4.15;;;3.75;;
35540;SDS011;21650;48.840;9.162;2023-06-10T12:55:48;4.63;;;4.10;;
35540;SDS011;21650;48.840;9.162;2023-06-10T12:58:14;4.80;;;3.90;;
35540;SDS011;21650;48.840;9.162;2023-06-10T13:00:40;5.22;;;3.70;;
35540;SDS011;21650;48.840;9.162;2023-06-10T13:03:07;3.38;;;3.08;;
35540;SDS011;21650;48.840;9.162;2023-06-10T13:05:34;3.35;;;3.05;;
35540;SDS011;21650;48.840;9.162;2023-06-10T13:08:03;3.90;;;3.50;;
35540;SDS011;21650;48.840;9.162;2023-06-10T13:10:32;3.20;;;2.90;;
35540;SDS011;21650;48.840;9.162;2023-06-10T13:13:00;3.60;;;3.30;;
35540;SDS011;21650;48.840;9.162;2023-06-10T13:15:26;4.20;;;3.80;;
35540;SDS011;21650;48.840;9.162;2023-06-10T13:17:52;3.58;;;3.28;;
35540;SDS011;21650;48.840;9.162;2023-06-10T13:20:18;3.97;;;3.58;;
35540;SDS011;21650;48.840;9.162;2023-06-10T13:22:44;3.85;;;3.38;;
35540;SDS011;21650;48.840;9.162;2023-06-10T13:25:10;3.67;;;3.38;;
35540;SDS011;21650;48.840;9.162;2023-06-10T13:27:36;4.90;;;3.75;;
35540;SDS011;21650;48.840;9.162;2023-06-10T13:30:07;3.05;;;2.83;;
35540;SDS011;21650;48.840;9.162;2023-06-10T13:32:35;6.88;;;3.40;;
35540;SDS011;21650;48.840;9.162;2023-06-10T13:35:01;3.72;;;3.42;;
35540;SDS011;21650;48.840;9.162;2023-06-10T13:37:28;5.18;;;4.03;;
35540;SDS011;21650;48.840;9.162;2023-06-10T13:39:53;4.30;;;3.45;;
35540;SDS011;21650;48.840;9.162;2023-06-10T13:42:19;4.22;;;3.83;;
35540;SDS011;21650;48.840;9.162;2023-06-10T13:44:45;6.05;;;3.28;;
35540;SDS011;21650;48.840;9.162;2023-06-10T13:47:12;5.35;;;3.70;;
35540;SDS011;21650;48.840;9.162;2023-06-10T13:49:38;3.58;;;3.10;;
35540;SDS011;21650;48.840;9.162;2023-06-10T13:52:05;3.42;;;3.13;;
35540;SDS011;21650;48.840;9.162;2023-06-10T13:54:31;3.50;;;3.20;;
35540;SDS011;21650;48.840;9.162;2023-06-10T13:56:57;3.85;;;3.45;;
35540;SDS011;21650;48.840;9.162;2023-06-10T13:59:23;5.07;;;3.28;;
35540;SDS011;21650;48.840;9.162;2023-06-10T14:01:48;5.22;;;3.45;;
35540;SDS011;21650;48.840;9.162;2023-06-10T14:04:14;3.65;;;3.28;;
35540;SDS011;21650;48.840;9.162;2023-06-10T14:06:39;3.80;;;3.50;;
35540;SDS011;21650;48.840;9.162;2023-06-10T14:09:05;3.33;;;3.03;;
35540;SDS011;21650;48.840;9.162;2023-06-10T14:11:31;4.03;;;3.70;;
35540;SDS011;21650;48.840;9.162;2023-06-10T14:13:56;4.18;;;3.67;;
35540;SDS011;21650;48.840;9.162;2023-06-10T14:16:22;3.30;;;3.00;;
35540;SDS011;21650;48.840;9.162;2023-06-10T14:18:49;4.50;;;3.13;;
35540;SDS011;21650;48.840;9.162;2023-06-10T14:21:18;3.88;;;3.58;;
35540;SDS011;21650;48.840;9.162;2023-06-10T14:23:44;6.22;;;3.50;;
35540;SDS011;21650;48.840;9.162;2023-06-10T14:26:10;4.13;;;3.67;;
35540;SDS011;21650;48.840;9.162;2023-06-10T14:28:36;3.60;;;3.30;;
35540;SDS011;21650;48.840;9.162;2023-06-10T14:31:01;3.85;;;2.97;;
35540;SDS011;21650;48.840;9.162;2023-06-10T14:33:27;6.15;;;3.80;;
35540;SDS011;21650;48.840;9.162;2023-06-10T14:35:53;4.82;;;3.33;;
35540;SDS011;21650;48.840;9.162;2023-06-10T14:38:19;3.65;;;3.13;;
35540;SDS011;21650;48.840;9.162;2023-06-10T14:40:44;4.30;;;3.90;;
35540;SDS011;21650;48.840;9.162;2023-06-10T14:43:10;3.10;;;2.85;;
35540;SDS011;21650;48.840;9.162;2023-06-10T14:45:36;5.55;;;3.83;;
35540;SDS011;21650;48.840;9.162;2023-06-10T14:48:02;4.57;;;3.72;;
35540;SDS011;21650;48.840;9.162;2023-06-10T14:50:29;4.28;;;3.88;;
35540;SDS011;21650;48.840;9.162;2023-06-10T14:52:54;4.43;;;3.90;;
35540;SDS011;21650;48.840;9.162;2023-06-10T14:55:20;3.92;;;3.53;;
35540;SDS011;21650;48.840;9.162;2023-06-10T14:57:47;4.43;;;4.03;;
35540;SDS011;21650;48.840;9.162;2023-06-10T15:00:13;4.57;;;4.18;;
35540;SDS011;21650;48.840;9.162;2023-06-10T15:02:41;5.70;;;4.68;;
35540;SDS011;21650;48.840;9.162;2023-06-10T15:05:07;4.22;;;3.83;;
35540;SDS011;21650;48.840;9.162;2023-06-10T15:07:33;4.13;;;3.75;;
35540;SDS011;21650;48.840;9.162;2023-06-10T15:09:59;4.07;;;3.78;;
35540;SDS011;21650;48.840;9.162;2023-06-10T15:12:24;4.30;;;4.00;;
35540;SDS011;21650;48.840;9.162;2023-06-10T15:14:50;3.85;;;3.55;;
35540;SDS011;21650;48.840;9.162;2023-06-10T15:17:16;4.40;;;4.00;;
35540;SDS011;21650;48.840;9.162;2023-06-10T15:19:41;4.07;;;3.70;;